createdAt,value
2022-10-12T00:01:00.980Z,102147.03
2022-10-12T00:03:27.492Z,102149.75
2022-10-12T00:06:04.278Z,102150.38
2022-10-12T00:08:31.253Z,102155.16
2022-10-12T00:10:58.191Z,102159.31
2022-10-12T00:13:24.984Z,102154.13
2022-10-12T00:15:51.488Z,102161.81
2022-10-12T00:18:18.289Z,102157.84
2022-10-12T00:20:45.050Z,102158.91
2022-10-12T00:23:11.721Z,102157.63
2022-10-12T00:25:40.085Z,102166.34
2022-10-12T00:28:07.422Z,102158.91
2022-10-12T00:30:34.655Z,102163.03
2022-10-12T00:33:01.182Z,102162.63
2022-10-12T00:35:30.483Z,102165.94
2022-10-12T00:37:56.993Z,102164.50
2022-10-12T00:40:23.852Z,102175.31
2022-10-12T00:42:50.568Z,102167.41
2022-10-12T00:45:17.360Z,102173.63
2022-10-12T00:47:56.805Z,102163.25
2022-10-12T00:50:29.382Z,102165.31
2022-10-12T00:53:00.933Z,102171.31
2022-10-12T00:55:31.809Z,102170.09
2022-10-12T00:57:59.123Z,102168.00
2022-10-12T01:00:26.088Z,102170.50
2022-10-12T01:02:54.901Z,102175.69
2022-10-12T01:05:22.961Z,102181.06
2022-10-12T01:07:49.771Z,102168.00
2022-10-12T01:10:16.655Z,102169.66
2022-10-12T01:12:44.989Z,102169.47
2022-10-12T01:15:12.529Z,102166.56
2022-10-12T01:17:57.270Z,102158.00
2022-10-12T01:20:23.833Z,102166.09
2022-10-12T01:23:21.095Z,102171.28
2022-10-12T01:26:14.989Z,102163.22
2022-10-12T01:29:08.666Z,102167.78
2022-10-12T01:31:49.596Z,102155.97
2022-10-12T01:34:42.579Z,102160.06
2022-10-12T01:37:18.637Z,102163.19
2022-10-12T01:39:53.951Z,102163.81
2022-10-12T01:42:26.497Z,102163.34
2022-10-12T01:45:03.958Z,102168.56
2022-10-12T01:47:31.425Z,102167.72
2022-10-12T01:49:58.783Z,102166.91
2022-10-12T01:52:41.641Z,102161.13
2022-10-12T01:55:19.564Z,102157.97
2022-10-12T01:58:00.967Z,102158.41
2022-10-12T02:00:32.917Z,102166.28
2022-10-12T02:03:14.233Z,102154.47
2022-10-12T02:05:59.310Z,102154.44
2022-10-12T02:08:34.401Z,102144.91
2022-10-12T02:11:06.982Z,102150.50
2022-10-12T02:13:38.474Z,102149.84
2022-10-12T02:16:10.387Z,102151.72
2022-10-12T02:18:42.437Z,102143.41
2022-10-12T02:21:13.120Z,102137.81
2022-10-12T02:23:40.136Z,102128.06
2022-10-12T02:26:08.015Z,102137.66
2022-10-12T02:28:37.246Z,102124.97
2022-10-12T02:31:28.582Z,102126.84
2022-10-12T02:34:04.462Z,102130.13
2022-10-12T02:37:08.369Z,102125.56
2022-10-12T02:39:45.446Z,102119.16
2022-10-12T02:42:15.274Z,102121.88
2022-10-12T02:44:43.627Z,102115.25
2022-10-12T02:47:11.718Z,102113.78
2022-10-12T02:49:40.129Z,102112.94
2022-10-12T02:52:07.835Z,102103.81
2022-10-12T02:54:34.439Z,102105.69
2022-10-12T02:57:00.882Z,102100.06
2022-10-12T02:59:27.308Z,102102.34
2022-10-12T03:01:54.015Z,102100.25
2022-10-12T03:04:20.737Z,102100.63
2022-10-12T03:06:47.260Z,102098.34
2022-10-12T03:09:14.152Z,102101.44
2022-10-12T03:11:43.900Z,102107.44
2022-10-12T03:14:12.426Z,102104.56
2022-10-12T03:16:39.377Z,102101.44
2022-10-12T03:19:05.843Z,102107.06
2022-10-12T03:21:32.334Z,102099.56
2022-10-12T03:23:58.802Z,102098.91
2022-10-12T03:26:25.331Z,102093.28
2022-10-12T03:28:51.805Z,102093.06
2022-10-12T03:31:18.588Z,102089.94
2022-10-12T03:33:45.074Z,102085.16
2022-10-12T03:36:11.476Z,102087.63
2022-10-12T03:38:38.044Z,102087.19
2022-10-12T03:41:06.871Z,102080.56
2022-10-12T03:43:34.307Z,102081.59
2022-10-12T03:46:00.837Z,102077.69
2022-10-12T03:48:27.363Z,102078.69
2022-10-12T03:50:53.869Z,102080.16
2022-10-12T03:53:21.119Z,102083.28
2022-10-12T03:55:47.674Z,102079.78
2022-10-12T03:58:14.677Z,102077.72
2022-10-12T04:00:41.414Z,102077.72
2022-10-12T04:03:07.879Z,102079.53
2022-10-12T04:05:34.436Z,102079.50
2022-10-12T04:08:00.890Z,102075.81
2022-10-12T04:10:27.573Z,102072.72
2022-10-12T04:12:54.107Z,102075.19
2022-10-12T04:17:47.426Z,102085.72
2022-10-12T04:20:14.042Z,102081.53
2022-10-12T04:22:40.474Z,102073.44
2022-10-12T04:25:07.275Z,102079.63
2022-10-12T04:27:33.776Z,102070.97
2022-10-12T04:30:00.157Z,102069.13
2022-10-12T04:32:29.133Z,102068.47
2022-10-12T04:34:55.663Z,102067.03
2022-10-12T04:37:22.264Z,102068.44
2022-10-12T04:39:48.752Z,102067.78
2022-10-12T04:42:15.226Z,102074.44
2022-10-12T04:44:41.637Z,102071.50
2022-10-12T04:47:08.065Z,102071.94
2022-10-12T04:49:34.590Z,102075.88
2022-10-12T04:52:01.108Z,102069.69
2022-10-12T04:54:27.561Z,102075.06
2022-10-12T04:56:54.044Z,102075.47
2022-10-12T04:59:20.575Z,102066.34
2022-10-12T05:01:47.312Z,102064.19
2022-10-12T05:04:13.873Z,102069.75
2022-10-12T05:06:40.339Z,102065.78
2022-10-12T05:09:06.911Z,102073.22
2022-10-12T05:11:33.616Z,102061.25
2022-10-12T05:14:00.198Z,102059.19
2022-10-12T05:16:26.587Z,102059.44
2022-10-12T05:18:53.041Z,102063.59
2022-10-12T05:21:19.826Z,102066.69
2022-10-12T05:23:50.815Z,102054.19
2022-10-12T05:26:17.594Z,102055.22
2022-10-12T05:28:44.296Z,102064.56
2022-10-12T05:31:11.044Z,102061.25
2022-10-12T05:33:37.513Z,102054.25
2022-10-12T05:36:04.575Z,102053.19
2022-10-12T05:38:31.081Z,102059.53
2022-10-12T05:41:00.526Z,102061.59
2022-10-12T05:43:28.555Z,102059.94
2022-10-12T05:45:55.337Z,102057.66
2022-10-12T05:48:21.797Z,102055.59
2022-10-12T05:50:48.390Z,102054.50
2022-10-12T05:53:15.014Z,102062.56
2022-10-12T05:55:58.320Z,102054.50
2022-10-12T05:58:26.769Z,102057.19
2022-10-12T06:00:53.332Z,102054.50
2022-10-12T06:03:25.352Z,102057.81
2022-10-12T06:05:52.717Z,102045.66
2022-10-12T06:08:19.345Z,102054.16
2022-10-12T06:10:49.824Z,102051.28
2022-10-12T06:13:17.848Z,102051.06
2022-10-12T06:15:48.117Z,102061.06
2022-10-12T06:18:15.818Z,102054.25
2022-10-12T06:20:49.790Z,102056.31
2022-10-12T06:23:17.461Z,102049.50
2022-10-12T06:25:47.586Z,102058.00
2022-10-12T06:28:15.642Z,102051.41
2022-10-12T06:30:42.564Z,102045.19
2022-10-12T06:33:09.479Z,102045.25
2022-10-12T06:35:36.001Z,102044.84
2022-10-12T06:38:02.590Z,102047.16
2022-10-12T06:40:29.020Z,102046.78
2022-10-12T06:42:58.608Z,102042.00
2022-10-12T06:45:26.001Z,102045.56
2022-10-12T06:47:52.649Z,102046.03
2022-10-12T06:50:19.123Z,102044.81
2022-10-12T06:52:47.058Z,102049.56
2022-10-12T06:55:13.755Z,102057.03
2022-10-12T06:57:40.410Z,102058.97
2022-10-12T07:00:08.937Z,102052.09
2022-10-12T07:02:35.902Z,102063.97
2022-10-12T07:05:03.320Z,102057.13
2022-10-12T07:07:31.703Z,102054.03
2022-10-12T07:09:58.227Z,102046.78
2022-10-12T07:12:24.773Z,102053.44
2022-10-12T07:14:51.242Z,102060.09
2022-10-12T07:17:17.823Z,102058.03
2022-10-12T07:19:44.263Z,102063.44
2022-10-12T07:22:10.747Z,102047.25
2022-10-12T07:24:37.215Z,102046.84
2022-10-12T07:27:06.134Z,102048.72
2022-10-12T07:29:33.319Z,102051.00
2022-10-12T07:32:00.041Z,102052.84
2022-10-12T07:34:27.410Z,102049.34
2022-10-12T07:36:59.637Z,102058.44
2022-10-12T07:39:26.748Z,102054.72
2022-10-12T07:41:54.191Z,102055.53
2022-10-12T07:44:22.533Z,102055.34
2022-10-12T07:46:49.095Z,102053.03
2022-10-12T07:49:16.394Z,102053.47
2022-10-12T07:51:43.131Z,102056.78
2022-10-12T07:54:10.184Z,102050.75
2022-10-12T07:56:36.633Z,102053.66
2022-10-12T07:59:04.153Z,102051.75
2022-10-12T08:01:31.463Z,102049.03
2022-10-12T08:04:01.722Z,102046.31
2022-10-12T08:06:31.058Z,102050.91
2022-10-12T08:08:58.839Z,102047.34
2022-10-12T08:11:25.373Z,102049.97
2022-10-12T08:13:51.843Z,102054.13
2022-10-12T08:16:20.149Z,102055.50
2022-10-12T08:18:46.987Z,102058.94
2022-10-12T08:21:15.535Z,102052.78
2022-10-12T08:23:44.561Z,102058.56
2022-10-12T08:26:11.741Z,102058.97
2022-10-12T08:28:38.288Z,102061.56
2022-10-12T08:31:09.857Z,102056.28
2022-10-12T08:33:36.697Z,102063.91
2022-10-12T08:36:04.875Z,102062.44
2022-10-12T08:38:31.511Z,102058.69
2022-10-12T08:41:17.421Z,102056.81
2022-10-12T08:44:31.619Z,102055.06
2022-10-12T08:47:04.794Z,102056.06
2022-10-12T08:49:32.077Z,102049.66
2022-10-12T08:52:03.314Z,102052.09
2022-10-12T08:54:35.495Z,102050.19
2022-10-12T08:57:01.986Z,102046.13
2022-10-12T08:59:29.535Z,102047.94
2022-10-12T09:02:01.805Z,102045.22
2022-10-12T09:04:58.662Z,102033.59
2022-10-12T09:07:49.098Z,102033.81
2022-10-12T09:10:35.303Z,102036.31
2022-10-12T09:13:16.932Z,102033.69
2022-10-12T09:15:56.685Z,102034.91
2022-10-12T09:18:40.875Z,102032.56
2022-10-12T09:21:17.981Z,102039.59
2022-10-12T09:23:44.808Z,102032.84
2022-10-12T09:26:42.132Z,102029.19
2022-10-12T09:29:29.852Z,102034.59
2022-10-12T09:31:56.805Z,102034.84
2022-10-12T09:34:24.357Z,102028.34
2022-10-12T09:36:51.249Z,102029.38
2022-10-12T09:39:28.964Z,102025.16
2022-10-12T09:41:56.245Z,102028.91
2022-10-12T09:44:33.541Z,102030.53
2022-10-12T09:47:02.593Z,102026.09
2022-10-12T09:49:50.314Z,102018.75
2022-10-12T09:52:20.315Z,102016.09
2022-10-12T09:54:51.105Z,102015.75
2022-10-12T09:57:23.625Z,102024.81
2022-10-12T09:59:51.336Z,102026.03
2022-10-12T10:02:19.711Z,102026.91
2022-10-12T10:04:48.402Z,102014.16
2022-10-12T10:07:30.697Z,102014.72
2022-10-12T10:10:15.605Z,102021.44
2022-10-12T10:12:58.845Z,102013.69
2022-10-12T10:15:32.242Z,102011.38
2022-10-12T10:18:04.801Z,102006.84
2022-10-12T10:20:42.845Z,102005.56
2022-10-12T10:23:24.633Z,102018.53
2022-10-12T10:26:05.797Z,102008.28
2022-10-12T10:28:37.912Z,102005.81
2022-10-12T10:31:27.727Z,102002.72
2022-10-12T10:34:09.793Z,102001.16
2022-10-12T10:36:52.013Z,101988.38
2022-10-12T10:39:23.052Z,102001.16
2022-10-12T10:41:50.576Z,101984.34
2022-10-12T10:44:30.438Z,101988.28
2022-10-12T10:47:09.665Z,101986.88
2022-10-12T10:49:50.806Z,101979.56
2022-10-12T10:52:20.274Z,101977.34
2022-10-12T10:54:46.887Z,101977.81
2022-10-12T10:57:20.418Z,101973.34
2022-10-12T10:59:52.637Z,101975.22
2022-10-12T11:02:27.397Z,101965.19
2022-10-12T11:05:20.361Z,101959.44
2022-10-12T11:08:19.469Z,101957.28
2022-10-12T11:11:04.027Z,101963.38
2022-10-12T11:13:41.769Z,101960.38
2022-10-12T11:16:17.069Z,101953.53
2022-10-12T11:18:53.562Z,101940.97
2022-10-12T11:21:43.106Z,101940.97
2022-10-12T11:24:25.058Z,101945.63
2022-10-12T11:26:57.469Z,101945.06
2022-10-12T11:29:24.197Z,101941.28
2022-10-12T11:32:31.852Z,101936.03
2022-10-12T11:35:03.013Z,101934.13
2022-10-12T11:37:42.712Z,101930.88
2022-10-12T11:40:27.052Z,101925.69
2022-10-12T11:43:12.167Z,101920.75
2022-10-12T11:45:43.126Z,101922.66
2022-10-12T11:48:19.706Z,101913.34
2022-10-12T11:50:50.487Z,101916.63
2022-10-12T11:53:27.686Z,101912.53
2022-10-12T11:56:12.739Z,101902.94
2022-10-12T11:58:59.934Z,101897.72
2022-10-12T12:01:53.703Z,101914.72
2022-10-12T12:04:45.006Z,101903.19
2022-10-12T12:07:30.304Z,101902.66
2022-10-12T12:09:56.759Z,101906.53
2022-10-12T12:12:28.608Z,101891.69
2022-10-12T12:14:55.041Z,101893.88
2022-10-12T12:17:28.037Z,101884.53
2022-10-12T12:19:59.615Z,101881.28
2022-10-12T12:22:30.306Z,101887.00
2022-10-12T12:25:04.460Z,101870.00
2022-10-12T12:27:31.605Z,101885.91
2022-10-12T12:30:00.605Z,101872.16
2022-10-12T12:32:46.031Z,101868.00
2022-10-12T12:35:40.190Z,101864.75
2022-10-12T12:38:12.372Z,101870.53
2022-10-12T12:40:53.523Z,101863.75
2022-10-12T12:43:29.049Z,101861.56
2022-10-12T12:46:23.167Z,101851.19
2022-10-12T12:48:49.572Z,101855.34
2022-10-12T12:51:35.767Z,101852.84
2022-10-12T12:54:06.421Z,101860.50
2022-10-12T12:56:51.356Z,101849.75
2022-10-12T12:59:52.087Z,101851.56
2022-10-12T13:02:48.043Z,101850.16
2022-10-12T13:05:55.335Z,101848.69
2022-10-12T13:08:24.701Z,101848.09
2022-10-12T13:11:22.099Z,101839.38
2022-10-12T13:14:33.986Z,101849.78
2022-10-12T13:17:35.654Z,101839.31
2022-10-12T13:20:19.659Z,101843.94
2022-10-12T13:22:47.999Z,101843.63
2022-10-12T13:25:36.564Z,101837.41
2022-10-12T13:28:07.553Z,101831.66
2022-10-12T13:30:51.682Z,101839.84
2022-10-12T13:33:31.404Z,101825.56
2022-10-12T13:36:05.633Z,101833.25
2022-10-12T13:38:35.086Z,101824.75
2022-10-12T13:41:07.791Z,101817.91
2022-10-12T13:43:43.591Z,101810.72
2022-10-12T13:46:15.220Z,101813.47
2022-10-12T13:48:59.337Z,101806.59
2022-10-12T13:51:30.126Z,101804.75
2022-10-12T13:53:57.770Z,101793.50
2022-10-12T13:56:27.998Z,101794.41
2022-10-12T13:59:05.331Z,101785.59
2022-10-12T14:01:47.686Z,101783.16
2022-10-12T14:04:14.345Z,101784.88
2022-10-12T14:06:40.911Z,101781.81
2022-10-12T14:09:19.737Z,101775.78
2022-10-12T14:11:47.322Z,101781.53
2022-10-12T14:14:37.390Z,101778.06
2022-10-12T14:17:04.145Z,101771.16
2022-10-12T14:19:53.164Z,101773.97
2022-10-12T14:22:37.908Z,101775.66
2022-10-12T14:25:36.285Z,101770.22
2022-10-12T14:28:06.709Z,101765.75
2022-10-12T14:30:33.138Z,101767.13
2022-10-12T14:33:16.438Z,101766.88
2022-10-12T14:35:48.077Z,101768.09
2022-10-12T14:38:39.591Z,101759.47
2022-10-12T14:41:33.112Z,101764.72
2022-10-12T14:44:20.207Z,101755.97
2022-10-12T14:47:02.890Z,101740.91
2022-10-12T14:49:40.891Z,101740.91
2022-10-12T14:52:18.105Z,101745.06
2022-10-12T14:54:44.608Z,101742.34
2022-10-12T14:57:16.167Z,101744.25
2022-10-12T14:59:43.017Z,101733.88
2022-10-12T15:02:19.595Z,101734.19
2022-10-12T15:04:47.082Z,101732.56
2022-10-12T15:07:25.859Z,101732.31
2022-10-12T15:09:52.617Z,101726.03
2022-10-12T15:12:22.225Z,101731.81
2022-10-12T15:14:50.185Z,101727.72
2022-10-12T15:17:18.965Z,101730.75
2022-10-12T15:19:47.692Z,101727.50
2022-10-12T15:22:17.149Z,101722.56
2022-10-12T15:24:44.182Z,101718.75
2022-10-12T15:27:11.063Z,101717.94
2022-10-12T15:29:37.919Z,101710.00
2022-10-12T15:32:05.777Z,101718.75
2022-10-12T15:34:32.213Z,101710.00
2022-10-12T15:36:58.825Z,101705.63
2022-10-12T15:39:25.477Z,101703.22
2022-10-12T15:41:51.908Z,101702.38
2022-10-12T15:44:18.588Z,101698.88
2022-10-12T15:46:45.334Z,101696.44
2022-10-12T15:49:14.147Z,101690.97
2022-10-12T15:51:47.504Z,101688.22
2022-10-12T15:54:14.593Z,101681.38
2022-10-12T15:56:41.682Z,101676.19
2022-10-12T15:59:08.619Z,101677.31
2022-10-12T16:01:36.663Z,101674.56
2022-10-12T16:04:05.665Z,101670.50
2022-10-12T16:06:32.903Z,101673.78
2022-10-12T16:08:59.398Z,101670.22
2022-10-12T16:11:25.952Z,101672.94
2022-10-12T16:13:56.536Z,101666.91
2022-10-12T16:16:24.224Z,101670.78
2022-10-12T16:18:53.731Z,101668.28
2022-10-12T16:21:20.518Z,101665.25
2022-10-12T16:23:47.081Z,101675.94
2022-10-12T16:26:14.830Z,101674.81
2022-10-12T16:28:41.911Z,101673.13
2022-10-12T16:31:15.782Z,101674.44
2022-10-12T16:33:42.845Z,101666.75
2022-10-12T16:36:14.906Z,101662.88
2022-10-12T16:38:42.966Z,101669.94
2022-10-12T16:41:14.345Z,101671.78
2022-10-12T16:43:40.932Z,101676.63
2022-10-12T16:46:08.466Z,101675.22
2022-10-12T16:48:35.389Z,101676.00
2022-10-12T16:51:07.894Z,101670.19
2022-10-12T16:53:34.929Z,101675.53
2022-10-12T16:56:02.262Z,101682.31
2022-10-12T16:58:28.762Z,101681.97
2022-10-12T17:00:55.658Z,101676.97
2022-10-12T17:03:22.105Z,101677.53
2022-10-12T17:05:57.654Z,101681.03
2022-10-12T17:08:24.125Z,101676.84
2022-10-12T17:10:50.761Z,101671.38
2022-10-12T17:13:17.263Z,101674.56
2022-10-12T17:15:43.772Z,101672.31
2022-10-12T17:18:10.339Z,101669.84
2022-10-12T17:20:36.932Z,101679.34
2022-10-12T17:23:03.494Z,101682.53
2022-10-12T17:25:30.018Z,101681.34
2022-10-12T17:27:56.480Z,101681.78
2022-10-12T17:30:23.168Z,101680.94
2022-10-12T17:32:49.709Z,101674.56
2022-10-12T17:35:16.251Z,101679.09
2022-10-12T17:37:42.946Z,101680.38
2022-10-12T17:40:10.601Z,101676.69
2022-10-12T17:42:37.466Z,101677.31
2022-10-12T17:45:04.390Z,101679.00
2022-10-12T17:47:30.877Z,101683.19
2022-10-12T17:49:57.272Z,101689.31
2022-10-12T17:52:23.808Z,101681.00
2022-10-12T17:54:50.394Z,101678.69
2022-10-12T17:57:17.311Z,101671.22
2022-10-12T17:59:44.025Z,101670.56
2022-10-12T18:02:10.779Z,101671.28
2022-10-12T18:04:37.197Z,101673.13
2022-10-12T18:07:03.676Z,101680.38
2022-10-12T18:09:31.034Z,101679.19
2022-10-12T18:11:57.476Z,101673.44
2022-10-12T18:14:23.967Z,101675.50
2022-10-12T18:16:50.630Z,101676.69
2022-10-12T18:19:17.194Z,101669.78
2022-10-12T18:21:44.069Z,101674.06
2022-10-12T18:24:16.095Z,101674.06
2022-10-12T18:26:47.420Z,101685.63
2022-10-12T18:29:17.510Z,101697.19
2022-10-12T18:31:44.078Z,101696.06
2022-10-12T18:34:10.615Z,101685.91
2022-10-12T18:36:37.490Z,101685.25
2022-10-12T18:39:04.605Z,101686.78
2022-10-12T18:41:32.300Z,101685.63
2022-10-12T18:44:00.565Z,101686.81
2022-10-12T18:46:31.610Z,101681.06
2022-10-12T18:48:58.542Z,101677.69
2022-10-12T18:51:34.241Z,101681.91
2022-10-12T18:54:01.933Z,101677.00
2022-10-12T18:56:29.726Z,101678.28
2022-10-12T18:58:59.553Z,101679.34
2022-10-12T19:01:28.098Z,101671.94
2022-10-12T19:03:56.202Z,101677.25
2022-10-12T19:06:25.327Z,101676.41
2022-10-12T19:08:52.391Z,101678.16
2022-10-12T19:11:21.158Z,101676.97
2022-10-12T19:13:55.089Z,101678.78
2022-10-12T19:16:22.550Z,101671.69
2022-10-12T19:18:49.790Z,101668.41
2022-10-12T19:21:18.500Z,101675.13
2022-10-12T19:23:45.409Z,101668.88
2022-10-12T19:26:15.277Z,101656.63
2022-10-12T19:28:41.987Z,101646.50
2022-10-12T19:31:11.218Z,101654.41
2022-10-12T19:33:37.737Z,101643.31
2022-10-12T19:36:06.026Z,101641.44
2022-10-12T19:38:32.760Z,101646.84
2022-10-12T19:40:59.491Z,101640.16
2022-10-12T19:43:26.192Z,101642.63
2022-10-12T19:45:52.736Z,101648.50
2022-10-12T19:48:19.578Z,101645.56
2022-10-12T19:50:46.241Z,101647.19
2022-10-12T19:53:12.825Z,101643.91
2022-10-12T19:55:39.683Z,101640.97
2022-10-12T19:58:09.755Z,101644.47
2022-10-12T20:00:36.971Z,101622.56
2022-10-12T20:03:04.715Z,101607.47
2022-10-12T20:05:31.162Z,101640.94
2022-10-12T20:07:58.234Z,101632.00
2022-10-12T20:10:24.827Z,101627.38
2022-10-12T20:12:51.718Z,101640.00
2022-10-12T20:15:18.211Z,101631.28
2022-10-12T20:17:44.794Z,101637.31
2022-10-12T20:20:11.404Z,101639.41
2022-10-12T20:22:37.958Z,101630.22
2022-10-12T20:25:09.432Z,101636.97
2022-10-12T20:27:36.797Z,101629.66
2022-10-12T20:30:04.779Z,101632.34
2022-10-12T20:32:31.563Z,101628.97
2022-10-12T20:34:57.986Z,101623.78
2022-10-12T20:37:24.498Z,101628.00
2022-10-12T20:39:52.448Z,101631.81
2022-10-12T20:42:21.968Z,101628.59
2022-10-12T20:44:49.629Z,101628.94
2022-10-12T20:47:17.569Z,101624.84
2022-10-12T20:49:44.612Z,101629.06
2022-10-12T20:52:11.321Z,101629.34
2022-10-12T20:54:38.225Z,101628.03
2022-10-12T20:57:05.014Z,101626.88
2022-10-12T20:59:34.374Z,101621.06
2022-10-12T21:02:00.800Z,101616.84
2022-10-12T21:04:30.495Z,101608.16
2022-10-12T21:06:58.207Z,101610.38
2022-10-12T21:09:24.670Z,101603.31
2022-10-12T21:11:51.214Z,101604.94
2022-10-12T21:14:17.703Z,101604.72
2022-10-12T21:16:44.151Z,101602.13
2022-10-12T21:19:15.421Z,101604.94
2022-10-12T21:21:42.184Z,101594.25
2022-10-12T21:24:10.273Z,101593.19
2022-10-12T21:26:36.793Z,101601.78
2022-10-12T21:29:03.341Z,101602.00
2022-10-12T21:31:32.654Z,101599.78
2022-10-12T21:34:02.166Z,101596.47
2022-10-12T21:36:29.942Z,101597.56
2022-10-12T21:38:56.965Z,101600.03
2022-10-12T21:41:25.439Z,101594.97
2022-10-12T21:43:52.793Z,101595.09
2022-10-12T21:46:22.575Z,101590.00
2022-10-12T21:48:49.903Z,101586.72
2022-10-12T21:51:16.959Z,101596.81
2022-10-12T21:53:43.486Z,101599.91
2022-10-12T21:56:18.447Z,101599.28
2022-10-12T21:58:45.883Z,101596.59
2022-10-12T22:01:21.413Z,101598.72
2022-10-12T22:03:56.519Z,101604.13
2022-10-12T22:06:25.237Z,101604.94
2022-10-12T22:08:54.963Z,101601.41
2022-10-12T22:11:22.644Z,101605.22
2022-10-12T22:13:49.555Z,101600.03
2022-10-12T22:16:17.843Z,101602.34
2022-10-12T22:18:45.348Z,101600.72
2022-10-12T22:21:17.373Z,101600.50
2022-10-12T22:23:45.100Z,101598.03
2022-10-12T22:26:14.435Z,101597.22
2022-10-12T22:28:48.493Z,101596.94
2022-10-12T22:31:17.059Z,101586.38
2022-10-12T22:33:43.899Z,101585.66
2022-10-12T22:36:11.874Z,101588.59
2022-10-12T22:38:38.889Z,101587.66
2022-10-12T22:41:13.269Z,101584.84
2022-10-12T22:43:46.724Z,101584.72
2022-10-12T22:46:13.249Z,101590.59
2022-10-12T22:48:40.108Z,101587.91
2022-10-12T22:51:08.539Z,101585.19
2022-10-12T22:53:36.101Z,101581.06
2022-10-12T22:56:05.931Z,101591.31
2022-10-12T22:58:33.137Z,101579.44
2022-10-12T23:01:09.656Z,101576.50
2022-10-12T23:03:36.834Z,101578.47
2022-10-12T23:06:10.238Z,101587.66
2022-10-12T23:08:37.458Z,101584.09
2022-10-12T23:11:05.336Z,101582.72
2022-10-12T23:13:34.411Z,101581.03
2022-10-12T23:16:12.116Z,101574.00
2022-10-12T23:18:39.269Z,101578.00
2022-10-12T23:21:08.430Z,101572.81
2022-10-12T23:23:36.132Z,101566.81
2022-10-12T23:26:07.509Z,101568.94
2022-10-12T23:28:34.310Z,101567.28
2022-10-12T23:31:05.454Z,101561.75
2022-10-12T23:33:32.216Z,101558.47
2022-10-12T23:36:01.748Z,101557.03
2022-10-12T23:38:30.018Z,101552.47
2022-10-12T23:40:56.818Z,101559.97
2022-10-12T23:43:23.645Z,101555.03
2022-10-12T23:45:50.463Z,101558.34
2022-10-12T23:48:16.902Z,101554.78
2022-10-12T23:50:46.739Z,101551.84
2022-10-12T23:53:13.854Z,101550.81
2022-10-12T23:55:40.788Z,101545.16
2022-10-12T23:58:07.259Z,101541.66
